• Join FlightAware (Why Join?)
  • Login
  • US Flag 
09:57AM EST


 

Airport Tracker/Info


-or-


 

Live Flight TrackerFlight Track Log ✈ CPT7773 ✈ 03-May-2013 ✈ KCOD - KCPR

Flight Track Log - Related Links

Times and Time Zones

All times are in EDT time to prevent confusion due to time zone crossing. See the CPT7773 flight status page for this flight to view local times or setup timezone preferences in your user account.

Time Position Orientation Groundspeed Altitude Reporting Facility
EDT Latitude Longitude Course Direction KTS MPH feet Rate Location/Type
07:59PM 44.4953 -108.9375 126° Southeast 125 144 7,700  Level Salt Lake Center
08:00PM 44.4756 -108.8992 126° Southeast 127 146 8,800 900 Climbing Salt Lake Center
08:01PM 44.4514 -108.8547 127° Southeast 128 147 9,600 780 Climbing Salt Lake Center
08:02PM 44.4303 -108.8167 128° Southeast 128 147 10,500 660 Climbing Salt Lake Center
08:03PM 44.4039 -108.7681 127° Southeast 133 153 11,000 240 Climbing Salt Lake Center
08:04PM 44.3792 -108.7219 127° Southeast 143 165 11,100  Climbing Salt Lake Center
08:05PM 44.3528 -108.6742 128° Southeast 153 176 11,100  Level Salt Lake Center
08:06PM 44.3222 -108.6158 126° Southeast 161 185 11,100  Level Salt Lake Center
08:07PM 44.2969 -108.5650 125° Southeast 165 190 11,100  Level Salt Lake Center
08:08PM 44.2667 -108.5106 128° Southeast 163 188 11,100  Level Salt Lake Center
08:09PM 44.2411 -108.4642 128° Southeast 160 184 11,100  Level Salt Lake Center
08:10PM 44.2119 -108.4086 126° Southeast 159 183 11,100  Level Salt Lake Center
08:11PM 44.1864 -108.3597 126° Southeast 160 184 11,100  Level Salt Lake Center
08:12PM 44.1542 -108.3031 128° Southeast 164 189 11,100  Level Salt Lake Center
08:13PM 44.1283 -108.2533 126° Southeast 166 191 11,100  Level Salt Lake Center
08:14PM 44.1008 -108.2019 127° Southeast 169 194 11,100  Level Salt Lake Center
08:15PM 44.0697 -108.1453 127° Southeast 168 193 11,100  Level Salt Lake Center
08:17PM 44.0436 -108.0964 127° Southeast 166 191 11,100 -60 Level Salt Lake Center
08:18PM 44.0119 -108.0400 128° Southeast 166 191 11,000 -60 Descending Salt Lake Center
08:19PM 43.9844 -107.9908 128° Southeast 166 191 11,000  Level Salt Lake Center
08:20PM 43.9506 -107.9311 128° Southeast 172 198 11,000  Level Salt Lake Center
08:21PM 43.9250 -107.8817 126° Southeast 170 196 11,000  Level Salt Lake Center
08:22PM 43.8978 -107.8231 123° Southeast 166 191 11,000  Level Salt Lake Center
08:23PM 43.8756 -107.7761 123° Southeast 160 184 11,000  Level Salt Lake Center
08:24PM 43.8517 -107.7314 127° Southeast 155 178 11,000  Level Salt Lake Center
08:25PM 43.8214 -107.6761 127° Southeast 157 181 11,000  Level Salt Lake Center
08:26PM 43.7950 -107.6258 126° Southeast 163 188 11,000  Level Salt Lake Center
08:27PM 43.7658 -107.5692 125° Southeast 163 188 11,000 -60 Level Salt Lake Center
08:28PM 43.7394 -107.5189 126° Southeast 166 191 10,900  Descending Salt Lake Center
08:29PM 43.7100 -107.4603 125° Southeast 166 191 11,000  Climbing Salt Lake Center
08:30PM 43.6853 -107.4119 125° Southeast 164 189 11,000  Level Salt Lake Center
08:31PM 43.6592 -107.3592 124° Southeast 156 180 11,100  Climbing Salt Lake Center
08:32PM 43.6356 -107.3128 125° Southeast 155 178 11,000 -60 Descending Salt Lake Center
08:33PM 43.6117 -107.2681 126° Southeast 153 176 11,000  Level Salt Lake Center
08:34PM 43.5850 -107.2153 125° Southeast 151 174 11,000  Level Salt Lake Center
08:35PM 43.5617 -107.1728 127° Southeast 149 171 11,000  Level Salt Lake Center
08:36PM 43.5344 -107.1217 126° Southeast 148 170 11,000  Level Salt Lake Center
08:37PM 43.5203 -107.0908 122° Southeast 148 170 11,000  Level Denver Center
08:38PM 43.4894 -107.0269 124° Southeast 154 177 11,000  Level Denver Center
08:39PM 43.4653 -106.9861 129° Southeast 146 168 11,000  Level Denver Center
08:40PM 43.4378 -106.9317 125° Southeast 154 177 11,000  Level Denver Center
08:41PM 43.4131 -106.8839 125° Southeast 159 183 11,000  Level Denver Center
08:42PM 43.3844 -106.8328 128° Southeast 159 183 11,000 -300 Level Denver Center
08:43PM 43.3617 -106.7861 124° Southeast 154 177 10,500 -540 Descending Denver Center
08:44PM 43.3297 -106.7303 128° Southeast 164 189 10,000 -300 Descending Denver Center
08:45PM 43.2917 -106.7056 155° Southeast 162 186 10,000 -60 Level Denver Center
08:46PM 43.2411 -106.6925 169° South 167 192 9,900 -420 Descending Denver Center
08:47PM 43.2006 -106.6672 156° South 167 192 9,200 -840 Descending Denver Center
08:48PM 43.1603 -106.6419 155° Southeast 167 192 8,300 -600 Descending Denver Center
08:49PM 43.1106 -106.6144 158° South 169 194 8,000 -300 Descending Denver Center
08:50PM 43.0689 -106.5908 158° South 170 196 7,700 -420 Descending Denver Center
08:51PM 43.0200 -106.5606 156° South 171 197 7,200 -300 Descending Denver Center
08:52PM 42.9797 -106.5378 158° South 172 198 7,100 -120 Descending Denver Center
08:54PM 42.9396 -106.4936 141° Southeast  Level FlightAware Approximate
09:01PM 42.9080 -106.4644 148° Southeast  Level Estimated
09:02PM 42.9080 -106.4644 148° Southeast  Level Estimated
09:03PM 42.9080 -106.4644 148° Southeast  Level Estimated
09:04PM 42.9080 -106.4644 148° Southeast  Level Estimated